Time;durP1;ratioP1;P1;durP2;ratioP2;P2;SDS_P1;SDS_P2;PMS_P1;PMS_P2;Temp;Humidity;BMP_temperature;BMP_pressure;BME280_temperature;BME280_humidity;BME280_pressure;Samples;Min_cycle;Max_cycle;Signal;HPM_P1;HPM_P2
2022/04/08 00:01:07;;;;;;;3.77;2.10;;;7.20;99.90;;;;;;5117342;28;20543;-71
2022/04/08 00:03:34;;;;;;;2.90;1.50;;;7.20;99.90;;;;;;5116955;28;20453;-70
2022/04/08 00:06:02;;;;;;;3.77;1.80;;;7.30;99.90;;;;;;5117053;28;20448;-70
2022/04/08 00:08:28;;;;;;;2.37;1.60;;;7.30;99.90;;;;;;5117117;28;20480;-70
2022/04/08 00:10:55;;;;;;;3.37;1.70;;;7.40;99.90;;;;;;5117210;28;20738;-70
2022/04/08 00:13:22;;;;;;;2.90;1.90;;;7.40;99.90;;;;;;5117049;28;20460;-71
2022/04/08 00:15:48;;;;;;;2.90;2.10;;;7.40;99.90;;;;;;5116780;28;20467;-72
2022/04/08 00:18:19;;;;;;;4.30;1.97;;;7.40;99.90;;;;;;5116857;28;20905;-71
2022/04/08 00:20:48;;;;;;;4.37;2.00;;;7.40;99.90;;;;;;5116991;28;20736;-71
2022/04/08 00:23:14;;;;;;;3.00;1.93;;;7.30;99.90;;;;;;5116896;28;20463;-70
2022/04/08 00:25:41;;;;;;;2.23;2.03;;;7.30;99.90;;;;;;5116402;28;20452;-71
2022/04/08 00:28:08;;;;;;;3.80;2.30;;;7.40;99.90;;;;;;5116840;28;20457;-71
2022/04/08 00:30:34;;;;;;;5.03;2.17;;;7.40;99.90;;;;;;5116802;28;20456;-71
2022/04/08 00:33:01;;;;;;;5.90;2.30;;;7.30;99.90;;;;;;5116809;28;20460;-71
2022/04/08 00:35:28;;;;;;;3.57;2.13;;;7.30;99.90;;;;;;5116415;28;20539;-72
2022/04/08 00:37:56;;;;;;;4.30;2.67;;;7.20;99.90;;;;;;5116120;28;20925;-71
2022/04/08 00:40:23;;;;;;;3.60;2.73;;;7.10;99.90;;;;;;5117005;28;20476;-71
2022/04/08 00:42:50;;;;;;;5.80;2.77;;;6.90;99.90;;;;;;5116374;28;20456;-71
2022/04/08 00:45:20;;;;;;;3.83;2.60;;;6.80;99.90;;;;;;5116404;28;20478;-72
2022/04/08 00:47:48;;;;;;;6.40;2.30;;;6.70;99.90;;;;;;5116318;28;20551;-73
2022/04/08 00:50:15;;;;;;;4.87;3.00;;;6.60;99.90;;;;;;5116404;28;20983;-72
2022/04/08 00:52:45;;;;;;;4.97;3.07;;;6.50;99.90;;;;;;5115966;28;20913;-72
2022/04/08 00:55:14;;;;;;;3.10;2.80;;;6.40;99.90;;;;;;5115805;28;20476;-71
2022/04/08 00:57:40;;;;;;;5.43;2.70;;;6.40;99.90;;;;;;5115887;28;20456;-72
2022/04/08 01:00:11;;;;;;;16.37;2.20;;;6.40;99.90;;;;;;5116123;28;20499;-72
2022/04/08 01:02:38;;;;;;;3.80;2.13;;;6.40;99.90;;;;;;5116174;28;20452;-72
2022/04/08 01:05:06;;;;;;;2.03;1.87;;;6.40;99.90;;;;;;5116081;28;20521;-72
2022/04/08 01:07:33;;;;;;;3.17;2.23;;;6.40;99.90;;;;;;5115808;28;20492;-71
2022/04/08 01:09:59;;;;;;;4.00;2.20;;;6.50;99.90;;;;;;5115893;28;20499;-72
2022/04/08 01:12:28;;;;;;;2.70;1.60;;;6.60;99.90;;;;;;5115465;28;20452;-72
2022/04/08 01:14:58;;;;;;;3.00;1.30;;;6.70;99.90;;;;;;5115861;28;20512;-72
2022/04/08 01:17:25;;;;;;;3.50;1.33;;;6.80;99.90;;;;;;5116231;28;20495;-72
2022/04/08 01:19:52;;;;;;;4.50;1.20;;;6.90;99.90;;;;;;5116680;28;20760;-71
2022/04/08 01:22:19;;;;;;;2.30;1.20;;;6.90;99.90;;;;;;5118826;28;20460;-72
2022/04/08 01:24:48;;;;;;;2.53;1.43;;;7.00;99.90;;;;;;5118746;28;20897;-72
2022/04/08 01:27:19;;;;;;;1.87;1.37;;;7.10;99.90;;;;;;5116703;28;20536;-71
2022/04/08 01:29:47;;;;;;;2.40;1.30;;;7.10;99.90;;;;;;5115616;28;20467;-72
2022/04/08 01:32:14;;;;;;;1.60;1.20;;;7.20;99.90;;;;;;5115323;28;20472;-71
2022/04/08 01:34:41;;;;;;;1.87;1.30;;;7.20;99.90;;;;;;5115597;28;20797;-71
2022/04/08 01:37:08;;;;;;;2.20;1.23;;;7.20;99.90;;;;;;5114873;28;20460;-72
2022/04/08 01:39:35;;;;;;;4.60;1.60;;;7.20;99.90;;;;;;5115554;28;20462;-72
2022/04/08 01:42:01;;;;;;;1.57;1.30;;;7.30;99.90;;;;;;5115761;28;20449;-72
2022/04/08 01:44:29;;;;;;;2.03;1.30;;;7.30;99.90;;;;;;5115356;28;20461;-71
2022/04/08 01:46:56;;;;;;;4.70;1.30;;;7.30;99.90;;;;;;5115452;28;20460;-71
2022/04/08 01:49:23;;;;;;;4.37;1.40;;;7.30;99.90;;;;;;5115382;28;20476;-72
2022/04/08 01:51:49;;;;;;;1.23;1.07;;;7.30;99.90;;;;;;5115313;28;20459;-70
2022/04/08 01:54:16;;;;;;;2.90;1.13;;;7.30;99.90;;;;;;5114684;28;20595;-71
2022/04/08 01:56:44;;;;;;;2.60;1.20;;;7.30;99.90;;;;;;5114989;28;20423;-70
2022/04/08 01:59:11;;;;;;;2.07;1.40;;;7.30;99.90;;;;;;5115155;28;20449;-70
2022/04/08 02:01:39;;;;;;;3.77;1.50;;;7.20;99.90;;;;;;5114798;28;20475;-72
2022/04/08 02:04:06;;;;;;;2.47;1.40;;;7.20;99.90;;;;;;5115009;28;20462;-69
2022/04/08 02:06:34;;;;;;;3.13;1.60;;;7.20;99.90;;;;;;5114972;28;20456;-71
2022/04/08 02:09:01;;;;;;;3.40;1.53;;;7.20;99.90;;;;;;5114966;28;20529;-71
2022/04/08 02:11:28;;;;;;;1.50;1.30;;;7.20;99.90;;;;;;5114885;28;20468;-70
2022/04/08 02:13:55;;;;;;;1.80;1.40;;;7.30;99.90;;;;;;5115114;28;20452;-71
2022/04/08 02:16:21;;;;;;;4.47;1.53;;;7.30;99.90;;;;;;5116125;28;20456;-74
2022/04/08 02:18:50;;;;;;;4.67;1.80;;;7.30;99.90;;;;;;5115713;28;20452;-72
2022/04/08 02:21:19;;;;;;;2.17;1.40;;;7.30;99.90;;;;;;5114791;28;20543;-73
2022/04/08 02:23:46;;;;;;;2.27;1.30;;;7.30;99.90;;;;;;5114469;28;20456;-73
2022/04/08 02:26:13;;;;;;;2.70;1.67;;;7.30;99.90;;;;;;5114650;28;20456;-73
2022/04/08 02:28:40;;;;;;;2.47;1.30;;;7.30;99.90;;;;;;5114016;28;20452;-72
2022/04/08 02:31:07;;;;;;;4.13;1.70;;;7.30;99.90;;;;;;5114732;28;20460;-73
2022/04/08 02:33:33;;;;;;;3.43;1.73;;;7.40;99.90;;;;;;5114084;28;20948;-72
2022/04/08 02:36:01;;;;;;;2.50;1.40;;;7.40;99.90;;;;;;5114701;28;20452;-73
2022/04/08 02:38:28;;;;;;;3.40;1.60;;;7.40;99.90;;;;;;5114586;28;20457;-73
2022/04/08 02:40:55;;;;;;;4.73;1.33;;;7.40;99.90;;;;;;5114819;28;20449;-73
2022/04/08 02:43:22;;;;;;;2.50;1.20;;;7.40;99.90;;;;;;5115051;28;20456;-73
2022/04/08 02:45:49;;;;;;;2.73;1.20;;;7.40;99.90;;;;;;5115057;28;20463;-73
2022/04/08 02:48:15;;;;;;;4.80;1.40;;;7.40;99.90;;;;;;5114507;28;20936;-73
2022/04/08 02:50:42;;;;;;;4.57;1.43;;;7.40;99.90;;;;;;5118475;28;20491;-74
2022/04/08 02:53:10;;;;;;;4.07;1.40;;;7.50;99.90;;;;;;5118474;28;20459;-73
2022/04/08 02:55:37;;;;;;;2.53;1.57;;;7.50;99.90;;;;;;5117975;28;20488;-73
2022/04/08 02:58:04;;;;;;;2.60;1.33;;;7.50;99.90;;;;;;5118459;28;20460;-73
2022/04/08 03:00:30;;;;;;;1.57;1.30;;;7.50;99.90;;;;;;5118305;28;20880;-73
2022/04/08 03:02:57;;;;;;;1.63;1.10;;;7.50;99.90;;;;;;5118400;28;20456;-73
2022/04/08 03:05:24;;;;;;;1.97;1.27;;;7.50;99.90;;;;;;5118175;28;20460;-73
2022/04/08 03:07:52;;;;;;;3.53;1.37;;;7.50;99.90;;;;;;5118767;28;20903;-73
2022/04/08 03:10:20;;;;;;;3.00;1.53;;;7.60;99.90;;;;;;5118599;28;20567;-73
2022/04/08 03:12:46;;;;;;;2.13;1.23;;;7.60;99.90;;;;;;5118237;28;20452;-73
2022/04/08 03:15:13;;;;;;;5.40;1.10;;;7.60;99.90;;;;;;5117953;28;20460;-73
2022/04/08 03:17:40;;;;;;;3.73;1.47;;;7.60;99.90;;;;;;5117740;28;20920;-73
2022/04/08 03:20:07;;;;;;;2.40;1.33;;;7.50;99.90;;;;;;5118026;28;20448;-73
2022/04/08 03:22:34;;;;;;;4.07;1.20;;;7.50;99.90;;;;;;5117651;28;20896;-73
2022/04/08 03:25:01;;;;;;;2.67;1.10;;;7.50;99.90;;;;;;5117966;28;20837;-73
2022/04/08 03:27:29;;;;;;;4.67;1.30;;;7.60;99.90;;;;;;5117912;28;20789;-73
2022/04/08 03:29:56;;;;;;;6.27;1.17;;;7.60;99.90;;;;;;5118605;28;20795;-73
2022/04/08 03:32:22;;;;;;;4.77;1.80;;;7.60;99.90;;;;;;5118468;28;20524;-73
2022/04/08 03:34:57;;;;;;;2.07;1.10;;;7.60;99.90;;;;;;5117707;28;20471;-73
2022/04/08 03:37:23;;;;;;;3.13;1.30;;;7.60;99.90;;;;;;5117910;28;20447;-73
2022/04/08 03:39:50;;;;;;;1.40;1.20;;;7.60;99.90;;;;;;5117686;28;20463;-73
2022/04/08 03:42:17;;;;;;;2.37;1.43;;;7.60;99.90;;;;;;5117431;28;20521;-73
2022/04/08 03:44:45;;;;;;;3.60;1.30;;;7.60;99.90;;;;;;5117355;28;20460;-73
2022/04/08 03:47:11;;;;;;;2.60;1.23;;;7.60;99.90;;;;;;5117595;28;20456;-73
2022/04/08 03:49:38;;;;;;;3.30;1.40;;;7.60;99.90;;;;;;5117562;28;20476;-73
2022/04/08 03:52:06;;;;;;;3.40;1.20;;;7.40;99.90;;;;;;5117322;28;20456;-73
2022/04/08 03:54:32;;;;;;;4.77;1.50;;;7.20;99.90;;;;;;5117276;28;20483;-74
2022/04/08 03:56:59;;;;;;;1.90;1.10;;;7.00;99.90;;;;;;5116948;28;20452;-73
2022/04/08 03:59:26;;;;;;;4.13;1.20;;;6.90;99.90;;;;;;5116945;28;20452;-73
2022/04/08 04:01:54;;;;;;;2.60;1.50;;;6.80;99.90;;;;;;5116732;28;20464;-74
2022/04/08 04:04:20;;;;;;;2.83;1.70;;;6.70;99.90;;;;;;5116732;28;20557;-75
2022/04/08 04:06:47;;;;;;;3.03;1.87;;;6.60;99.90;;;;;;5117212;28;20457;-74
2022/04/08 04:09:14;;;;;;;1.90;1.17;;;6.50;99.90;;;;;;5116718;28;20932;-74
2022/04/08 04:11:41;;;;;;;1.40;1.17;;;6.50;99.90;;;;;;5116948;28;20463;-74
2022/04/08 04:14:07;;;;;;;1.73;1.10;;;6.50;99.90;;;;;;5116858;28;20460;-74
2022/04/08 04:16:34;;;;;;;2.37;1.50;;;6.40;99.90;;;;;;5116890;28;20804;-74
2022/04/08 04:19:02;;;;;;;2.47;1.20;;;6.40;99.90;;;;;;5116647;28;20917;-74
2022/04/08 04:21:30;;;;;;;2.47;1.10;;;6.40;99.90;;;;;;5117039;28;20512;-73
2022/04/08 04:23:57;;;;;;;1.70;1.00;;;6.40;99.90;;;;;;5116511;28;21009;-73
2022/04/08 04:26:23;;;;;;;2.00;1.00;;;6.40;99.90;;;;;;5116631;28;20463;-73
2022/04/08 04:28:50;;;;;;;1.37;1.00;;;6.50;99.90;;;;;;5116810;28;20456;-74
2022/04/08 04:31:17;;;;;;;2.60;1.33;;;6.50;99.90;;;;;;5116531;28;20485;-73
2022/04/08 04:33:43;;;;;;;2.47;1.40;;;6.40;99.90;;;;;;5117081;28;20456;-74
2022/04/08 04:36:12;;;;;;;2.03;1.10;;;6.40;99.90;;;;;;5116271;28;20453;-73
2022/04/08 04:38:39;;;;;;;2.07;1.10;;;6.40;99.90;;;;;;5116190;28;20492;-74
2022/04/08 04:41:05;;;;;;;2.13;0.93;;;6.30;99.90;;;;;;5116340;28;20449;-73
2022/04/08 04:43:32;;;;;;;1.60;1.20;;;6.20;99.90;;;;;;5116347;28;20460;-73
2022/04/08 04:45:59;;;;;;;1.30;0.90;;;6.30;99.90;;;;;;5117437;28;20461;-74
2022/04/08 04:48:26;;;;;;;2.70;1.03;;;6.30;99.90;;;;;;5116412;28;20537;-74
2022/04/08 04:50:54;;;;;;;3.63;1.33;;;6.30;99.90;;;;;;5116076;28;20472;-73
2022/04/08 04:53:22;;;;;;;2.13;1.20;;;6.30;99.90;;;;;;5116368;28;20460;-74
2022/04/08 04:55:49;;;;;;;2.67;1.10;;;6.30;99.90;;;;;;5115958;28;20968;-74
2022/04/08 04:58:15;;;;;;;3.00;1.10;;;6.20;99.90;;;;;;5119533;28;20456;-73
2022/04/08 05:00:42;;;;;;;1.50;1.10;;;6.20;99.90;;;;;;5125040;28;20460;-73
2022/04/08 05:03:11;;;;;;;3.93;1.50;;;6.20;99.90;;;;;;5125669;28;20453;-74
2022/04/08 05:05:38;;;;;;;3.47;1.20;;;6.20;99.90;;;;;;5121054;28;20539;-73
2022/04/08 05:08:06;;;;;;;3.03;1.40;;;6.10;99.90;;;;;;5117428;28;20473;-73
2022/04/08 05:10:35;;;;;;;2.00;1.50;;;6.10;99.90;;;;;;5116640;28;20563;-73
2022/04/08 05:13:02;;;;;;;4.80;1.43;;;6.00;99.90;;;;;;5115394;28;20463;-73
2022/04/08 05:15:29;;;;;;;4.70;1.50;;;6.00;99.90;;;;;;5115790;28;20928;-72
2022/04/08 05:17:58;;;;;;;1.57;1.20;;;5.90;99.90;;;;;;5115655;28;21003;-74
2022/04/08 05:20:25;;;;;;;2.13;1.27;;;5.90;99.90;;;;;;5116071;28;20841;-74
2022/04/08 05:22:52;;;;;;;2.03;1.27;;;5.90;99.90;;;;;;5115541;28;20449;-72
2022/04/08 05:25:18;;;;;;;3.90;1.70;;;5.90;99.90;;;;;;5115904;28;20475;-73
2022/04/08 05:27:47;;;;;;;3.53;1.50;;;5.90;99.90;;;;;;5116356;28;20472;-73
2022/04/08 05:30:17;;;;;;;1.90;1.63;;;5.80;99.90;;;;;;5116413;28;20482;-73
2022/04/08 05:32:45;;;;;;;3.17;1.37;;;5.80;99.90;;;;;;5115354;28;20460;-73
2022/04/08 05:35:12;;;;;;;4.47;2.37;;;5.80;99.90;;;;;;5115477;28;20453;-72
2022/04/08 05:37:42;;;;;;;3.70;1.77;;;5.90;99.90;;;;;;5115722;28;20925;-72
2022/04/08 05:40:10;;;;;;;1.97;1.37;;;5.90;99.90;;;;;;5116083;28;20453;-73
2022/04/08 05:42:39;;;;;;;2.10;1.50;;;6.00;99.90;;;;;;5115215;28;20838;-72
2022/04/08 05:45:08;;;;;;;3.20;1.60;;;6.00;99.90;;;;;;5115371;28;20479;-73
2022/04/08 05:47:35;;;;;;;3.83;1.60;;;6.00;99.90;;;;;;5115309;28;20520;-73
2022/04/08 05:50:02;;;;;;;3.87;1.80;;;6.00;99.90;;;;;;5115014;28;20569;-73
2022/04/08 05:52:30;;;;;;;2.07;1.87;;;6.00;99.90;;;;;;5115118;28;20521;-73
2022/04/08 05:54:57;;;;;;;2.57;1.37;;;6.10;99.90;;;;;;5114824;28;20507;-73
2022/04/08 05:57:26;;;;;;;3.60;1.60;;;6.10;99.90;;;;;;5115384;28;20925;-73
2022/04/08 05:59:59;;;;;;;4.77;1.70;;;6.00;99.90;;;;;;5115318;28;20758;-74
2022/04/08 06:02:27;;;;;;;2.80;1.37;;;6.00;99.90;;;;;;5115282;28;20445;-73
2022/04/08 06:04:54;;;;;;;2.47;1.83;;;6.00;99.90;;;;;;5114790;28;20819;-73
2022/04/08 06:07:23;;;;;;;4.50;1.57;;;5.90;99.90;;;;;;5114834;28;20449;-74
2022/04/08 06:09:50;;;;;;;2.83;1.40;;;5.90;99.90;;;;;;5114928;28;20470;-73
2022/04/08 06:12:17;;;;;;;4.97;1.60;;;6.00;99.90;;;;;;5114493;28;20479;-72
2022/04/08 06:14:43;;;;;;;3.57;1.93;;;6.00;99.90;;;;;;5114414;28;20494;-73
2022/04/08 06:17:10;;;;;;;6.53;1.93;;;6.10;99.90;;;;;;5114673;28;20464;-73
2022/04/08 06:19:38;;;;;;;2.03;1.53;;;6.20;99.90;;;;;;5114886;28;20448;-73
2022/04/08 06:22:05;;;;;;;6.30;2.23;;;6.20;99.90;;;;;;5114732;28;20464;-74
2022/04/08 06:24:32;;;;;;;3.33;1.80;;;6.30;99.90;;;;;;5117170;28;20452;-73
2022/04/08 06:26:58;;;;;;;2.00;1.40;;;6.30;99.90;;;;;;5119019;28;20456;-73
2022/04/08 06:29:25;;;;;;;2.00;1.60;;;6.30;99.90;;;;;;5118862;28;20460;-73
2022/04/08 06:31:52;;;;;;;4.10;1.60;;;6.40;99.90;;;;;;5118933;28;20488;-72
2022/04/08 06:34:18;;;;;;;2.00;1.43;;;6.40;99.90;;;;;;5118363;28;20463;-72
2022/04/08 06:36:46;;;;;;;3.70;2.00;;;6.50;99.90;;;;;;5119003;28;20475;-73
2022/04/08 06:39:13;;;;;;;3.50;1.77;;;6.60;99.90;;;;;;5118696;28;20795;-73
2022/04/08 06:41:40;;;;;;;5.27;1.90;;;6.60;99.90;;;;;;5118248;28;20993;-75
2022/04/08 06:44:07;;;;;;;2.63;1.60;;;6.50;99.90;;;;;;5118878;28;20464;-74
2022/04/08 06:46:34;;;;;;;2.40;1.30;;;6.30;99.90;;;;;;5118432;28;20448;-75
2022/04/08 06:49:02;;;;;;;2.87;1.43;;;5.80;99.90;;;;;;5118061;28;20947;-75
2022/04/08 06:51:30;;;;;;;5.77;1.43;;;5.30;99.90;;;;;;5118347;28;20472;-74
2022/04/08 06:53:59;;;;;;;1.93;1.60;;;5.00;99.90;;;;;;5118165;28;20452;-74
2022/04/08 06:56:27;;;;;;;4.80;1.40;;;4.70;99.90;;;;;;5118294;28;20525;-74
2022/04/08 06:58:53;;;;;;;6.23;1.43;;;4.40;99.90;;;;;;5118460;28;20582;-74
2022/04/08 07:01:20;;;;;;;3.10;2.00;;;4.10;99.90;;;;;;5118009;28;20460;-73
2022/04/08 07:03:47;;;;;;;2.87;1.53;;;3.90;99.90;;;;;;5118209;28;20448;-75
2022/04/08 07:06:13;;;;;;;7.87;1.30;;;3.70;99.90;;;;;;5117974;28;20802;-74
2022/04/08 07:08:40;;;;;;;2.33;1.30;;;3.50;99.90;;;;;;5118368;28;20797;-74
2022/04/08 07:11:08;;;;;;;5.90;2.00;;;3.40;99.90;;;;;;5118379;28;20476;-74
2022/04/08 07:13:37;;;;;;;2.00;1.57;;;3.20;99.90;;;;;;5118518;28;20532;-74
2022/04/08 07:16:04;;;;;;;6.00;1.90;;;3.20;99.90;;;;;;5118385;28;20487;-74
2022/04/08 07:18:31;;;;;;;3.70;1.90;;;3.20;99.90;;;;;;5117912;28;20462;-75
2022/04/08 07:20:58;;;;;;;7.30;2.00;;;3.30;99.90;;;;;;5118235;28;20497;-75
2022/04/08 07:23:24;;;;;;;4.57;2.00;;;3.40;99.90;;;;;;5118124;28;20823;-75
2022/04/08 07:25:51;;;;;;;4.37;2.17;;;3.50;99.90;;;;;;5117980;28;20818;-74
2022/04/08 07:28:20;;;;;;;3.10;1.60;;;3.60;99.90;;;;;;5117480;28;20460;-74
2022/04/08 07:30:48;;;;;;;6.20;1.43;;;3.70;99.90;;;;;;5117812;28;20486;-75
2022/04/08 07:33:14;;;;;;;8.20;1.80;;;3.90;99.90;;;;;;5117229;28;20449;-74
2022/04/08 07:35:41;;;;;;;2.00;1.50;;;4.00;99.90;;;;;;5115764;28;20913;-75
2022/04/08 07:38:08;;;;;;;8.67;1.37;;;4.20;99.90;;;;;;5117052;28;20467;-73
2022/04/08 07:40:34;;;;;;;5.43;1.57;;;4.40;99.90;;;;;;5117506;28;20565;-74
2022/04/08 07:43:01;;;;;;;8.20;2.10;;;4.50;99.90;;;;;;5117004;28;20460;-74
2022/04/08 07:45:30;;;;;;;5.87;2.07;;;4.60;99.90;;;;;;5117222;28;20803;-74
2022/04/08 07:47:59;;;;;;;5.03;1.80;;;4.70;99.90;;;;;;5117463;28;20833;-74
2022/04/08 07:50:27;;;;;;;6.33;1.43;;;4.70;99.90;;;;;;5117065;28;20518;-74
2022/04/08 07:52:53;;;;;;;4.13;2.00;;;4.70;99.90;;;;;;5117237;28;20488;-74
2022/04/08 07:55:23;;;;;;;2.57;1.20;;;4.70;99.90;;;;;;5116827;28;20481;-73
2022/04/08 07:57:52;;;;;;;4.57;1.50;;;4.80;99.90;;;;;;5117416;28;20857;-74
2022/04/08 08:00:21;;;;;;;4.23;2.03;;;4.90;99.90;;;;;;5116965;28;20456;-74
2022/04/08 08:02:50;;;;;;;2.87;1.70;;;4.90;99.90;;;;;;5117286;28;20525;-73
2022/04/08 08:05:17;;;;;;;4.80;1.40;;;5.00;99.90;;;;;;5116935;28;20467;-74
2022/04/08 08:07:48;;;;;;;4.93;1.70;;;5.10;99.90;;;;;;5116842;28;20766;-73
2022/04/08 08:10:16;;;;;;;6.80;2.10;;;5.20;99.90;;;;;;5116990;28;20527;-72
2022/04/08 08:12:43;;;;;;;7.27;2.00;;;5.30;99.90;;;;;;5116894;28;20811;-73
2022/04/08 08:15:10;;;;;;;3.90;1.97;;;5.40;99.90;;;;;;5116641;28;20449;-74
2022/04/08 08:17:38;;;;;;;8.63;2.20;;;5.50;99.90;;;;;;5116739;28;20786;-72
2022/04/08 08:20:08;;;;;;;2.40;1.70;;;5.60;99.90;;;;;;5116709;28;20502;-72
2022/04/08 08:22:35;;;;;;;8.63;2.30;;;5.90;99.90;;;;;;5116829;28;20456;-72
2022/04/08 08:25:02;;;;;;;8.10;2.07;;;6.10;99.90;;;;;;5116678;28;20463;-71
2022/04/08 08:27:29;;;;;;;4.80;1.83;;;6.20;99.90;;;;;;5117781;28;20464;-72
2022/04/08 08:29:55;;;;;;;6.97;2.17;;;6.40;99.90;;;;;;5118597;28;20473;-74
2022/04/08 08:32:22;;;;;;;5.17;1.90;;;6.50;99.90;;;;;;5120377;28;20556;-73
2022/04/08 08:34:49;;;;;;;9.30;1.90;;;6.60;99.90;;;;;;5118885;28;20514;-73
2022/04/08 08:37:17;;;;;;;14.37;2.00;;;6.70;99.90;;;;;;5122353;28;20463;-73
2022/04/08 08:39:44;;;;;;;4.40;2.33;;;6.80;99.90;;;;;;5122951;28;20464;-73
2022/04/08 08:42:10;;;;;;;3.67;1.90;;;6.90;99.90;;;;;;5122959;28;20459;-73
2022/04/08 08:44:37;;;;;;;7.73;1.70;;;6.90;99.90;;;;;;5119318;28;20513;-73
2022/04/08 08:47:05;;;;;;;9.97;2.30;;;7.00;99.90;;;;;;5116760;28;20901;-73
2022/04/08 08:49:32;;;;;;;5.20;1.73;;;7.10;99.90;;;;;;5117068;28;20456;-74
2022/04/08 08:52:01;;;;;;;8.53;1.47;;;7.20;99.90;;;;;;5116340;28;20472;-72
2022/04/08 08:54:31;;;;;;;6.53;1.50;;;7.20;99.90;;;;;;5116239;28;20975;-73
2022/04/08 08:57:01;;;;;;;7.73;1.67;;;7.20;99.90;;;;;;5116150;28;20440;-73
2022/04/08 08:59:28;;;;;;;4.90;1.73;;;7.20;99.90;;;;;;5116119;28;20772;-73
2022/04/08 09:02:01;;;;;;;5.20;1.50;;;7.20;99.90;;;;;;5115967;28;20509;-73
2022/04/08 09:04:28;;;;;;;8.63;1.63;;;7.20;99.90;;;;;;5115765;28;20893;-72
2022/04/08 09:06:55;;;;;;;7.00;1.50;;;7.20;99.90;;;;;;5115304;28;20849;-72
2022/04/08 09:09:30;;;;;;;5.80;1.90;;;7.20;99.90;;;;;;5115824;28;20460;-72
2022/04/08 09:11:57;;;;;;;3.67;1.70;;;7.20;99.90;;;;;;5115943;28;20468;-72
2022/04/08 09:14:28;;;;;;;1.90;1.20;;;7.40;99.90;;;;;;5116240;28;20452;-72
2022/04/08 09:17:01;;;;;;;4.17;1.73;;;7.50;99.90;;;;;;5115334;28;20536;-72
2022/04/08 09:19:33;;;;;;;5.30;1.70;;;7.60;99.90;;;;;;5115681;28;20468;-72
2022/04/08 09:22:00;;;;;;;10.13;1.40;;;7.70;99.90;;;;;;5115383;28;20527;-72
2022/04/08 09:24:28;;;;;;;8.63;1.57;;;7.80;99.90;;;;;;5115803;28;20467;-72
2022/04/08 09:26:59;;;;;;;6.40;1.80;;;7.70;99.90;;;;;;5115196;28;20463;-71
2022/04/08 09:29:27;;;;;;;8.43;2.97;;;7.60;99.90;;;;;;5115286;28;20892;-72
2022/04/08 09:31:57;;;;;;;20.07;2.63;;;7.50;99.90;;;;;;5115291;28;20522;-71
2022/04/08 09:34:24;;;;;;;8.23;2.00;;;7.40;99.90;;;;;;5115487;28;20738;-72
2022/04/08 09:36:50;;;;;;;2.47;1.30;;;7.50;99.90;;;;;;5115361;28;20467;-73
2022/04/08 09:39:17;;;;;;;4.73;2.03;;;7.60;99.90;;;;;;5115040;28;20492;-71
2022/04/08 09:41:49;;;;;;;2.97;1.50;;;7.70;99.90;;;;;;5115398;28;20740;-73
2022/04/08 09:44:24;;;;;;;8.80;2.07;;;7.80;99.90;;;;;;5115537;28;20456;-72
2022/04/08 09:46:51;;;;;;;4.27;1.40;;;7.90;99.90;;;;;;5115511;28;20483;-72
2022/04/08 09:49:18;;;;;;;7.07;1.57;;;8.00;99.90;;;;;;5115200;28;20471;-72
2022/04/08 09:51:49;;;;;;;6.67;1.40;;;8.10;99.90;;;;;;5115231;28;20473;-72
2022/04/08 09:54:21;;;;;;;7.17;1.37;;;8.10;99.90;;;;;;5115583;28;20492;-72
2022/04/08 09:56:54;;;;;;;5.37;1.77;;;8.00;99.90;;;;;;5115266;28;20444;-74
2022/04/08 09:59:23;;;;;;;3.93;1.50;;;8.00;99.90;;;;;;5115051;28;20797;-73
2022/04/08 10:01:52;;;;;;;3.33;1.30;;;8.10;99.90;;;;;;5117710;28;20479;-73
2022/04/08 10:04:21;;;;;;;4.77;1.57;;;8.20;99.90;;;;;;5117384;28;20468;-73
2022/04/08 10:06:48;;;;;;;4.33;1.30;;;8.20;99.90;;;;;;5115223;28;20452;-72
2022/04/08 10:09:17;;;;;;;6.43;1.60;;;8.20;99.90;;;;;;5115080;28;20462;-72
2022/04/08 10:11:50;;;;;;;5.70;1.20;;;8.20;99.90;;;;;;5114785;28;20530;-73
2022/04/08 10:14:35;;;;;;;3.80;1.30;;;8.30;99.90;;;;;;5114906;28;20474;-72
2022/04/08 10:17:02;;;;;;;3.93;1.30;;;8.30;99.90;;;;;;5114766;28;20437;-73
2022/04/08 10:19:30;;;;;;;5.67;1.43;;;8.20;99.90;;;;;;5116219;28;20459;-73
2022/04/08 10:22:00;;;;;;;4.37;1.50;;;8.10;99.90;;;;;;5115782;28;20966;-72
2022/04/08 10:24:28;;;;;;;9.03;2.17;;;8.10;99.90;;;;;;5115072;28;20460;-73
2022/04/08 10:26:58;;;;;;;6.93;1.50;;;8.10;99.90;;;;;;5114844;28;20464;-73
2022/04/08 10:29:27;;;;;;;3.37;1.70;;;8.20;99.90;;;;;;5114530;28;20469;-73
2022/04/08 10:31:58;;;;;;;4.37;1.30;;;8.30;99.90;;;;;;5115876;28;20507;-73
2022/04/08 10:34:26;;;;;;;4.17;1.47;;;8.30;99.90;;;;;;5115612;28;20461;-73
2022/04/08 10:36:55;;;;;;;6.10;1.33;;;8.40;99.90;;;;;;5114334;28;20460;-72
2022/04/08 10:39:23;;;;;;;2.83;1.43;;;8.60;99.90;;;;;;5115492;28;20464;-71
2022/04/08 10:41:51;;;;;;;2.27;1.37;;;8.90;99.90;;;;;;5114665;28;20811;-73
2022/04/08 10:44:31;;;;;;;2.23;1.00;;;9.10;99.90;;;;;;5114393;28;20843;-72
2022/04/08 10:46:59;;;;;;;2.80;1.20;;;9.30;99.90;;;;;;5114432;28;20501;-73
2022/04/08 10:49:26;;;;;;;2.43;1.00;;;9.30;99.90;;;;;;5114052;28;20505;-72
2022/04/08 10:51:53;;;;;;;4.30;1.30;;;9.40;99.90;;;;;;5114308;28;21011;-73
2022/04/08 10:54:20;;;;;;;1.50;0.93;;;9.40;99.90;;;;;;5113852;28;20929;-72
2022/04/08 10:56:57;;;;;;;3.47;1.20;;;9.50;99.90;;;;;;5114341;28;20441;-72
2022/04/08 10:59:26;;;;;;;1.47;1.20;;;9.50;99.90;;;;;;5114739;28;20448;-73
2022/04/08 11:01:59;;;;;;;3.90;1.10;;;9.40;99.90;;;;;;5114451;28;20513;-72
2022/04/08 11:04:29;;;;;;;4.00;1.40;;;9.30;99.90;;;;;;5114519;28;20441;-74
2022/04/08 11:06:56;;;;;;;3.33;1.30;;;9.20;99.90;;;;;;5114629;28;20827;-73
2022/04/08 11:09:23;;;;;;;3.67;1.67;;;9.10;99.90;;;;;;5114610;28;20463;-72
2022/04/08 11:11:53;;;;;;;2.23;1.50;;;9.00;99.90;;;;;;5118108;28;20563;-73
2022/04/08 11:14:20;;;;;;;3.37;1.67;;;8.80;99.90;;;;;;5117881;28;20554;-72
2022/04/08 11:16:48;;;;;;;3.83;1.60;;;8.70;99.90;;;;;;5118418;28;20466;-72
2022/04/08 11:19:19;;;;;;;2.53;1.33;;;8.70;99.90;;;;;;5118784;28;20888;-73
2022/04/08 11:21:49;;;;;;;6.20;1.40;;;8.80;99.90;;;;;;5118056;28;20895;-73
2022/04/08 11:24:17;;;;;;;3.70;1.63;;;8.90;99.90;;;;;;5117980;28;20779;-73
2022/04/08 11:26:46;;;;;;;7.40;2.23;;;8.90;99.90;;;;;;5118287;28;20464;-72
2022/04/08 11:29:15;;;;;;;2.50;1.30;;;9.00;99.90;;;;;;5118184;28;20455;-73
2022/04/08 11:31:42;;;;;;;4.60;1.50;;;9.00;99.90;;;;;;5117804;28;20923;-72
2022/04/08 11:34:09;;;;;;;4.57;1.50;;;8.90;99.90;;;;;;5118123;28;20466;-74
2022/04/08 11:36:38;;;;;;;4.50;2.10;;;8.90;99.90;;;;;;5117877;28;20924;-71
2022/04/08 11:39:05;;;;;;;3.13;1.33;;;8.70;99.90;;;;;;5117759;28;20544;-73
2022/04/08 11:41:32;;;;;;;4.70;1.87;;;8.50;99.90;;;;;;5118178;28;20787;-73
2022/04/08 11:44:00;;;;;;;4.30;1.57;;;8.40;99.90;;;;;;5117913;28;20467;-72
2022/04/08 11:46:27;;;;;;;7.47;1.60;;;8.60;99.90;;;;;;5117821;28;20456;-73
2022/04/08 11:48:54;;;;;;;3.10;1.80;;;8.90;99.90;;;;;;5118063;28;20456;-73
2022/04/08 11:51:21;;;;;;;5.70;1.43;;;9.30;99.90;;;;;;5117664;28;20452;-73
2022/04/08 11:53:51;;;;;;;2.67;1.50;;;9.70;99.90;;;;;;5117360;28;20487;-72
2022/04/08 11:56:23;;;;;;;2.63;1.43;;;9.80;99.90;;;;;;5117883;28;20440;-72
2022/04/08 11:58:58;;;;;;;3.23;1.40;;;9.60;99.90;;;;;;5118547;28;20507;-73
2022/04/08 12:01:25;;;;;;;8.30;2.13;;;9.50;99.90;;;;;;5117683;28;20451;-74
2022/04/08 12:03:52;;;;;;;6.43;1.70;;;9.50;99.90;;;;;;5117510;28;20456;-73
2022/04/08 12:06:19;;;;;;;5.57;1.77;;;9.60;99.90;;;;;;5117436;28;20452;-72
2022/04/08 12:08:47;;;;;;;6.27;1.70;;;9.70;99.90;;;;;;5117837;28;20460;-72
2022/04/08 12:11:15;;;;;;;4.77;1.33;;;10.00;99.90;;;;;;5124077;28;20466;-73
2022/04/08 12:13:44;;;;;;;3.10;1.50;;;10.50;99.90;;;;;;5123230;28;20476;-73
2022/04/08 12:16:12;;;;;;;3.57;1.40;;;11.00;99.90;;;;;;5118817;28;20464;-72
2022/04/08 12:18:49;;;;;;;1.93;1.20;;;10.90;99.90;;;;;;5120044;28;20513;-73
2022/04/08 12:21:22;;;;;;;4.13;1.43;;;10.60;99.90;;;;;;5116614;28;20535;-73
2022/04/08 12:23:52;;;;;;;5.70;1.47;;;10.40;99.90;;;;;;5116925;28;20433;-74
2022/04/08 12:26:20;;;;;;;3.57;2.00;;;10.30;99.90;;;;;;5116820;28;20479;-73
2022/04/08 12:28:47;;;;;;;6.00;1.57;;;10.30;99.90;;;;;;5116639;28;20928;-72
2022/04/08 12:31:15;;;;;;;4.30;1.60;;;10.60;99.90;;;;;;5116890;28;20456;-72
2022/04/08 12:33:43;;;;;;;5.03;1.80;;;11.20;99.90;;;;;;5117033;28;20484;-73
2022/04/08 12:36:10;;;;;;;4.97;1.87;;;11.50;99.90;;;;;;5117019;28;20908;-72
2022/04/08 12:38:38;;;;;;;2.83;1.73;;;11.40;99.90;;;;;;5116712;28;20488;-73
2022/04/08 12:41:05;;;;;;;2.80;1.40;;;11.40;99.90;;;;;;5116297;28;20456;-74
2022/04/08 12:43:33;;;;;;;3.20;1.30;;;11.40;99.90;;;;;;5117038;28;20456;-74
2022/04/08 12:46:03;;;;;;;5.57;1.50;;;11.30;99.90;;;;;;5116787;28;20452;-73
2022/04/08 12:48:31;;;;;;;3.20;1.20;;;11.30;99.90;;;;;;5116404;28;20539;-73
2022/04/08 12:50:57;;;;;;;1.70;1.10;;;10.90;99.90;;;;;;5116516;28;20452;-71
2022/04/08 12:53:28;;;;;;;2.57;1.40;;;10.40;99.90;;;;;;5116288;28;20472;-73
2022/04/08 12:55:55;;;;;;;4.13;1.30;;;10.10;99.90;;;;;;5116095;28;20494;-73
2022/04/08 12:58:22;;;;;;;5.30;2.13;;;9.80;99.90;;;;;;5116589;28;20572;-72